Blue Oak Ranch Reserve, California Weather observations

Data are for 10 minute period ending at time listed.
 Day   Time   Solar   Ave.   Ave.  Ave.  Vector  Max.   Baro.   Total    
  of    of     Rad.   Air    Rel.  Wind   Wind   Wind  Press.  Precip.   
Year   Day            Temp.  Hum.  Speed  Dir.   Gust                    
2017   (PST)  Kw/m2    F      %     mph   deg.    mph    mb.     in.     
-------------------------------------------------------------------------
 229   19:30   0.00   69.0    56    1.9   337     4.3   948.8    0.00 
 229   19:40   0.00   68.5    55    2.5   360     5.3   948.8    0.00 
 229   19:50   0.00   69.1    54    3.1   330     6.5   948.8    0.00 
 229   20:00   0.00   68.4    54    1.7   339     5.3   948.8    0.00 
 229   20:10   0.00   67.5    55    2.0   338     3.4   948.8    0.00 
 229   20:20   0.00   66.6    57    3.3   304     4.7   948.9    0.00 
 229   20:30   0.00   66.1    57    1.2   348     2.7   948.8    0.00 
 229   20:40   0.00   65.3    58    1.5   343     3.4   948.9    0.00 
 229   20:50   0.00   64.9    59    1.5   296     3.3   948.9    0.00 
 229   21:00   0.00   64.0    60    0.0    71     0.5   948.8    0.00 
 229   21:10   0.00   63.5    61    0.1    59     1.0   948.7    0.00 
 229   21:20   0.00   63.0    62    0.2    70     1.0   948.7    0.00 
 229   21:30   0.00   62.2    64    0.5   303     1.8   948.9    0.00 
 229   21:40   0.00   62.0    64    1.2   281     2.3   948.9    0.00 
 229   21:50   0.00   61.7    63    0.1    34     1.5   948.8    0.00 
 229   22:00   0.00   61.4    64    0.2   284     1.2   948.8    0.00 
 229   22:10   0.00   60.8    66    0.4   261     1.6   948.7    0.00 
 229   22:20   0.00   60.6    65    0.1    52     1.0   948.9    0.00 
 229   22:30   0.00   59.8    65    0.9    43     1.8   949.0    0.00 
 229   22:40   0.00   59.8    65    0.5    17     1.6   949.0    0.00 
 229   22:50   0.00   59.8    65    0.6   360     1.9   948.8    0.00 
 229   23:00   0.00   59.3    67    1.5   295     2.1   948.8    0.00 
 229   23:10   0.00   59.0    68    0.0   306     0.6   948.8    0.00 
 229   23:20   0.00   59.0    66    0.8    64     2.0   948.8    0.00 
 229   23:30   0.00   58.8    66    0.5   287     1.4   948.8    0.00 
 229   23:40   0.00   58.8    66    0.3   318     1.2   948.8    0.00 
 229   23:50   0.00   58.9    65    1.1   293     1.8   948.7    0.00 
 230    0:00   0.00   58.4    67    0.1   359     1.0   948.7    0.00 
 230    0:10   0.00   58.5    66    0.9    40     1.6   948.8    0.00 
 230    0:20   0.00   59.0    64    0.1   318     0.9   948.8    0.00 
 230    0:30   0.00   58.6    65    0.2   321     1.1   948.8    0.00 
 230    0:40   0.00   58.1    66    0.0     0     0.0   948.7    0.00 
 230    0:50   0.00   58.1    66    0.0     0     0.0   948.7    0.00 
 230    1:00   0.00   57.9    66    0.2   113     1.3   948.6    0.00 
 230    1:10   0.00   57.5    67    0.4   106     1.2   948.5    0.00 
 230    1:20   0.00   57.1    67    0.2    56     0.8   948.3    0.00 
 230    1:30   0.00   56.4    69    1.1   305     1.8   948.2    0.00 
 230    1:40   0.00   56.5    69    0.5   277     1.6   948.2    0.00 
 230    1:50   0.00   56.9    68    0.6    95     1.9   948.2    0.00 
 230    2:00   0.00   57.4    67    0.2    41     1.2   948.2    0.00 
 230    2:10   0.00   57.8    67    0.0   277     0.4   948.2    0.00 
 230    2:20   0.00   57.9    66    0.0     0     0.0   948.2    0.00 
 230    2:30   0.00   58.1    65    0.5   350     1.2   948.2    0.00 
 230    2:40   0.00   57.7    66    0.5   297     1.4   948.2    0.00 
 230    2:50   0.00   58.2    66    0.8   291     2.0   948.1    0.00 
 230    3:00   0.00   57.9    67    1.5   291     3.4   948.1    0.00 
 230    3:10   0.00   57.6    69    0.2    66     1.1   948.0    0.00 
 230    3:20   0.00   57.1    71    0.7    97     1.5   948.0    0.00 
 230    3:30   0.00   56.9    72    0.9    75     1.6   948.0    0.00 
 230    3:40   0.00   56.5    73    0.1    35     0.9   948.1    0.00 
 230    3:50   0.00   56.5    71    1.4   304     3.2   948.0    0.00 
 230    4:00   0.00   55.7    73    2.0   294     3.5   948.0    0.00 
 230    4:10   0.00   56.0    73    0.6    12     1.5   948.0    0.00 
 230    4:20   0.00   56.6    72    0.9   226     1.5   948.0    0.00 
 230    4:30   0.00   56.6    72    0.1    50     0.9   948.1    0.00 
 230    4:40   0.00   56.4    73    0.1   262     0.9   948.1    0.00 
 230    4:50   0.00   56.4    74    0.0     0     0.0   948.2    0.00 
 230    5:00   0.00   55.9    74    0.0     0     0.0   948.2    0.00 
 230    5:10   0.00   55.5    77    0.3   100     1.1   948.3    0.00 
 230    5:20   0.00   55.3    76    0.2    33     1.1   948.4    0.00 
 230    5:30   0.01   54.8    78    0.1   356     0.7   948.4    0.00 
 230    5:40   0.01   54.8    79    0.5   296     1.6   948.5    0.00 
 230    5:50   0.02   54.9    79    0.0   310     0.9   948.5    0.00 
 230    6:00   0.03   55.2    78    0.4    51     1.6   948.6    0.00 
 230    6:10   0.03   55.0    77    1.0   100     2.0   948.7    0.00 
 230    6:20   0.04   55.3    77    0.5    41     1.7   948.7    0.00 
 230    6:30   0.05   56.2    76    0.2   338     1.3   948.7    0.00 
 230    6:40   0.12   58.7    72    1.4   283     2.2   948.7    0.00 
 230    6:50   0.15   62.1    67    1.1   295     2.0   948.6    0.00 
 230    7:00   0.18   65.9    61    0.1   153     1.3   948.5    0.00 
 230    7:10   0.21   69.2    55    0.4   138     1.7   948.6    0.00 
 230    7:20   0.24   69.9    54    1.1   170     3.4   948.8    0.00 
 230    7:30   0.27   69.8    56    1.6   132     2.4   949.0    0.00 
 230    7:40   0.30   69.7    57    1.7   152     2.6   949.2    0.00 
 230    7:50   0.34   70.3    57    1.4   163     2.9   949.3    0.00 
 230    8:00   0.36   72.8    53    1.6   235     3.9   949.4    0.00 
 230    8:10   0.40   73.8    52    1.9   231     3.7   949.5    0.00 
 230    8:20   0.42   75.1    49    1.8   174     4.4   949.5    0.00 
 230    8:30   0.46   74.7    50    2.7   160     4.4   949.5    0.00 
 230    8:40   0.48   74.3    50    2.5   133     4.8   949.5    0.00 
 230    8:50   0.51   76.5    47    2.7   238     5.3   949.5    0.00 
 230    9:00   0.54   77.9    46    3.3   243     5.5   949.5    0.00 
 230    9:10   0.56   77.6    47    4.5   239     6.6   949.4    0.00 
 230    9:20   0.59   77.1    48    4.3   246     6.2   949.4    0.00 
 230    9:30   0.62   77.2    48    3.8   236     5.8   949.3    0.00 
 230    9:40   0.64   78.1    47    3.9   239     5.5   949.2    0.00 
 230    9:50   0.67   78.6    47    4.4   230     6.2   949.2    0.00 
 230   10:00   0.69   79.4    46    4.3   237     7.4   949.1    0.00 
 230   10:10   0.71   79.8    46    4.6   242     7.5   949.1    0.00 
 230   10:20   0.72   79.5    46    4.3   243     7.1   949.1    0.00 
 230   10:30   0.74   81.6    43    4.3   248     7.1   949.0    0.00 
 230   10:40   0.76   81.5    43    4.6   231     8.9   949.0    0.00 
 230   10:50   0.77   82.4    42    5.1   263     9.3   949.0    0.00 
 230   11:00   0.79   82.7    41    4.8   237     8.5   949.0    0.00 
 230   11:10   0.80   83.0    40    4.7   248    10.2   948.9    0.00 
 230   11:20   0.81   83.2    40    4.1   255     8.3   948.8    0.00 
 230   11:30   0.81   82.9    40    5.1   245     8.4   948.7    0.00 
 230   11:40   0.82   84.1    38    4.6   262     9.5   948.7    0.00 
 230   11:50   0.82   83.8    38    6.6   272    10.9   948.6    0.00 
 230   12:00   0.82   83.6    37    4.8   238     8.3   948.6    0.00 
 230   12:10   0.82   83.4    36    5.5   253     9.6   948.5    0.00 
 230   12:20   0.82   84.5    34    5.2   262     9.6   948.5    0.00 
 230   12:30   0.82   84.9    33    4.6   264     9.0   948.5    0.00 
 230   12:40   0.82   84.2    33    5.1   251     8.7   948.5    0.00 
 230   12:50   0.82   85.0    32    4.5   238     9.0   948.4    0.00 
 230   13:00   0.77   85.2    33    4.5   249     9.3   948.3    0.00 
 230   13:10   0.81   85.6    34    4.9   252    10.2   948.3    0.00 
 230   13:20   0.80   85.4    34    5.7   254    10.4   948.2    0.00 
 230   13:30   0.80   86.1    34    6.1   269    13.2   948.1    0.00 
 230   13:40   0.77   86.5    33    4.9   259    10.5   948.0    0.00 
 230   13:50   0.77   86.2    34    5.3   252    10.1   948.0    0.00 
 230   14:00   0.76   86.6    34    6.4   265    10.9   947.9    0.00 
 230   14:10   0.74   87.2    33    6.2   270    10.1   947.8    0.00 
 230   14:20   0.72   87.6    33    5.4   258    11.4   947.7    0.00 
 230   14:30   0.71   87.2    35    5.8   265     9.3   947.7    0.00 
 230   14:40   0.69   86.7    34    6.0   269     9.5   947.7    0.00 
 230   14:50   0.67   86.5    36    5.9   268    10.2   947.7    0.00 
 230   15:00   0.64   85.9    37    5.9   268     9.4   947.6    0.00 
 230   15:10   0.62   85.6    36    5.2   268     9.9   947.6    0.00 
 230   15:20   0.59   85.9    36    5.1   259     8.0   947.5    0.00 
 230   15:30   0.57   86.1    36    4.5   260     8.5   947.5    0.00 
 230   15:40   0.54   85.8    36    4.3   262     7.7   947.4    0.00 
 230   15:50   0.51   86.1    37    3.5   236     6.0   947.3    0.00 
 230   16:00   0.48   85.3    38    4.2   227     6.4   947.2    0.00 
 230   16:10   0.45   84.9    39    4.1   232     6.7   947.2    0.00 
 230   16:20   0.42   84.9    40    3.9   239     6.4   947.2    0.00 
 230   16:30   0.39   84.9    40    4.0   246     6.3   947.1    0.00 
 230   16:40   0.36   84.4    41    3.9   278     6.2   947.2    0.00 
 230   16:50   0.33   83.8    42    4.2   279     6.6   947.3    0.00 
 230   17:00   0.30   82.6    44    3.8   286     6.2   947.4    0.00 
 230   17:10   0.27   82.5    44    4.0   278     6.4   947.4    0.00 
 230   17:20   0.24   83.0    43    3.1   246     5.3   947.3    0.00 
 230   17:30   0.21   82.1    44    2.9   237     4.9   947.3    0.00 
 230   17:40   0.18   81.8    45    2.6   243     3.9   947.3    0.00 
 230   17:50   0.15   81.6    45    2.4   243     3.9   947.4    0.00 
 230   18:00   0.12   80.5    47    3.3   250     5.1   947.5    0.00 
 230   18:10   0.10   79.1    49    2.5   250     4.2   947.6    0.00 
 230   18:20   0.07   78.9    49    0.9   268     1.9   947.6    0.00 
 230   18:30   0.05   76.6    53    0.5   313     1.6   947.7    0.00 
 230   18:40   0.03   75.5    54    0.6   284     1.3   947.7    0.00 
 230   18:50   0.01   73.3    58    0.0    14     0.5   947.9    0.00 
 230   19:00   0.01   71.8    60    1.0    28     1.7   947.9    0.00 
 230   19:10   0.00   70.5    61    0.7    47     2.3   947.9    0.00 
 230   19:20   0.00   69.3    63    0.5    66     1.7   947.8    0.00 

Return to Blue Oak Ranch Reserve graphs page.


Western Regional Climate Center,wrcc@dri.edu